sensor_id;sensor_type;location;lat;lon;timestamp;pressure;altitude;pressure_sealevel;temperature;humidity
59110;BME280;44895;47.438;18.978;2023-03-22T00:00:34;100011.81;;;8.75;100.00
59110;BME280;44895;47.438;18.978;2023-03-22T00:03:38;100019.25;;;8.59;100.00
59110;BME280;44895;47.438;18.978;2023-03-22T00:06:42;100024.72;;;8.43;100.00
59110;BME280;44895;47.438;18.978;2023-03-22T00:09:45;100024.22;;;8.41;100.00
59110;BME280;44895;47.438;18.978;2023-03-22T00:12:49;100016.63;;;8.38;100.00
59110;BME280;44895;47.438;18.978;2023-03-22T00:15:54;100015.38;;;8.25;100.00
59110;BME280;44895;47.438;18.978;2023-03-22T00:18:57;100012.66;;;8.25;100.00
59110;BME280;44895;47.438;18.978;2023-03-22T00:22:01;100016.97;;;8.31;100.00
59110;BME280;44895;47.438;18.978;2023-03-22T00:25:08;100006.66;;;8.33;100.00
59110;BME280;44895;47.438;18.978;2023-03-22T00:28:12;100012.41;;;8.22;100.00
59110;BME280;44895;47.438;18.978;2023-03-22T00:31:16;100011.69;;;8.06;100.00
59110;BME280;44895;47.438;18.978;2023-03-22T00:34:19;100008.47;;;7.98;100.00
59110;BME280;44895;47.438;18.978;2023-03-22T00:37:23;100011.03;;;7.69;100.00
59110;BME280;44895;47.438;18.978;2023-03-22T00:40:27;100012.97;;;7.53;100.00
59110;BME280;44895;47.438;18.978;2023-03-22T00:43:30;100010.28;;;7.53;100.00
59110;BME280;44895;47.438;18.978;2023-03-22T00:46:34;100014.59;;;7.54;100.00
59110;BME280;44895;47.438;18.978;2023-03-22T00:49:37;100015.47;;;7.24;100.00
59110;BME280;44895;47.438;18.978;2023-03-22T00:52:41;100011.41;;;7.26;100.00
59110;BME280;44895;47.438;18.978;2023-03-22T00:55:45;100015.91;;;7.62;100.00
59110;BME280;44895;47.438;18.978;2023-03-22T00:58:48;100010.59;;;7.41;100.00
59110;BME280;44895;47.438;18.978;2023-03-22T01:01:52;100014.94;;;7.11;100.00
59110;BME280;44895;47.438;18.978;2023-03-22T01:04:55;100014.16;;;6.85;100.00
59110;BME280;44895;47.438;18.978;2023-03-22T01:08:00;100011.97;;;7.13;100.00
59110;BME280;44895;47.438;18.978;2023-03-22T01:11:05;100009.00;;;6.99;100.00
59110;BME280;44895;47.438;18.978;2023-03-22T01:14:09;100006.56;;;7.13;100.00
59110;BME280;44895;47.438;18.978;2023-03-22T01:17:15;100004.66;;;7.24;100.00
59110;BME280;44895;47.438;18.978;2023-03-22T01:20:19;99993.56;;;7.30;100.00
59110;BME280;44895;47.438;18.978;2023-03-22T01:23:23;99982.16;;;7.59;100.00
59110;BME280;44895;47.438;18.978;2023-03-22T01:26:27;99986.16;;;7.72;100.00
59110;BME280;44895;47.438;18.978;2023-03-22T01:29:30;99989.50;;;7.33;100.00
59110;BME280;44895;47.438;18.978;2023-03-22T01:32:34;99989.28;;;7.14;100.00
59110;BME280;44895;47.438;18.978;2023-03-22T01:35:38;99992.78;;;7.30;100.00
59110;BME280;44895;47.438;18.978;2023-03-22T01:38:43;99984.13;;;7.28;100.00
59110;BME280;44895;47.438;18.978;2023-03-22T01:41:46;99985.25;;;7.01;100.00
59110;BME280;44895;47.438;18.978;2023-03-22T01:48:29;99990.94;;;6.94;100.00
59110;BME280;44895;47.438;18.978;2023-03-22T01:51:36;99993.34;;;7.01;100.00
59110;BME280;44895;47.438;18.978;2023-03-22T01:55:04;99994.72;;;6.73;100.00
59110;BME280;44895;47.438;18.978;2023-03-22T01:58:19;99993.63;;;6.58;100.00
59110;BME280;44895;47.438;18.978;2023-03-22T02:01:30;100002.78;;;6.31;100.00
59110;BME280;44895;47.438;18.978;2023-03-22T02:04:37;100003.88;;;6.51;100.00
59110;BME280;44895;47.438;18.978;2023-03-22T02:07:42;100003.63;;;6.63;100.00
59110;BME280;44895;47.438;18.978;2023-03-22T02:10:46;99993.63;;;6.74;100.00
59110;BME280;44895;47.438;18.978;2023-03-22T02:13:54;99997.94;;;6.54;100.00
59110;BME280;44895;47.438;18.978;2023-03-22T02:17:25;99997.69;;;6.50;100.00
59110;BME280;44895;47.438;18.978;2023-03-22T02:27:17;100016.28;;;6.52;100.00
59110;BME280;44895;47.438;18.978;2023-03-22T02:46:42;100017.34;;;6.35;100.00
59110;BME280;44895;47.438;18.978;2023-03-22T02:49:57;100017.59;;;6.29;100.00
59110;BME280;44895;47.438;18.978;2023-03-22T02:53:11;100021.09;;;6.19;100.00
59110;BME280;44895;47.438;18.978;2023-03-22T02:56:18;100025.69;;;6.29;100.00
59110;BME280;44895;47.438;18.978;2023-03-22T02:59:24;100024.66;;;6.50;100.00
59110;BME280;44895;47.438;18.978;2023-03-22T03:02:29;100021.13;;;6.34;100.00
59110;BME280;44895;47.438;18.978;2023-03-22T03:05:33;100014.66;;;6.51;100.00
59110;BME280;44895;47.438;18.978;2023-03-22T03:08:37;100015.50;;;6.57;100.00
59110;BME280;44895;47.438;18.978;2023-03-22T03:11:41;100013.91;;;6.92;100.00
59110;BME280;44895;47.438;18.978;2023-03-22T03:14:44;100006.59;;;6.77;100.00
59110;BME280;44895;47.438;18.978;2023-03-22T03:27:37;100010.34;;;7.12;100.00
59110;BME280;44895;47.438;18.978;2023-03-22T03:30:53;100009.00;;;6.99;100.00
59110;BME280;44895;47.438;18.978;2023-03-22T03:37:09;100027.38;;;7.02;100.00
59110;BME280;44895;47.438;18.978;2023-03-22T03:40:17;100031.97;;;6.86;100.00
59110;BME280;44895;47.438;18.978;2023-03-22T03:43:22;100033.59;;;6.77;100.00
59110;BME280;44895;47.438;18.978;2023-03-22T03:46:27;100036.00;;;6.99;100.00
59110;BME280;44895;47.438;18.978;2023-03-22T03:49:31;100035.75;;;6.85;100.00
59110;BME280;44895;47.438;18.978;2023-03-22T03:52:35;100035.47;;;6.71;100.00
59110;BME280;44895;47.438;18.978;2023-03-22T03:55:38;100031.69;;;6.62;100.00
59110;BME280;44895;47.438;18.978;2023-03-22T03:58:42;100036.03;;;6.78;100.00
59110;BME280;44895;47.438;18.978;2023-03-22T04:01:46;100038.44;;;6.85;100.00
59110;BME280;44895;47.438;18.978;2023-03-22T04:04:57;100023.59;;;6.93;100.00
59110;BME280;44895;47.438;18.978;2023-03-22T04:08:03;100032.25;;;6.79;100.00
59110;BME280;44895;47.438;18.978;2023-03-22T04:11:08;100031.69;;;6.77;100.00
59110;BME280;44895;47.438;18.978;2023-03-22T04:14:12;100041.69;;;6.72;100.00
59110;BME280;44895;47.438;18.978;2023-03-22T04:17:15;100043.31;;;6.98;100.00
59110;BME280;44895;47.438;18.978;2023-03-22T04:20:19;100041.13;;;6.90;100.00
59110;BME280;44895;47.438;18.978;2023-03-22T04:23:24;100031.13;;;6.65;100.00
59110;BME280;44895;47.438;18.978;2023-03-22T04:26:28;100044.63;;;6.70;100.00
59110;BME280;44895;47.438;18.978;2023-03-22T04:29:47;100037.88;;;6.62;100.00
59110;BME280;44895;47.438;18.978;2023-03-22T04:33:06;100027.38;;;6.81;100.00
59110;BME280;44895;47.438;18.978;2023-03-22T04:36:26;100035.50;;;7.02;100.00
59110;BME280;44895;47.438;18.978;2023-03-22T04:39:51;100030.34;;;6.80;100.00
59110;BME280;44895;47.438;18.978;2023-03-22T04:43:12;100031.41;;;6.79;100.00
59110;BME280;44895;47.438;18.978;2023-03-22T04:46:35;100044.66;;;7.01;100.00
59110;BME280;44895;47.438;18.978;2023-03-22T04:49:42;100049.50;;;6.99;100.00
59110;BME280;44895;47.438;18.978;2023-03-22T04:52:47;100045.22;;;7.08;100.00
59110;BME280;44895;47.438;18.978;2023-03-22T04:55:53;100054.09;;;7.14;100.00
59110;BME280;44895;47.438;18.978;2023-03-22T04:59:01;100058.44;;;7.15;100.00
59110;BME280;44895;47.438;18.978;2023-03-22T05:02:04;100056.00;;;7.18;100.00
59110;BME280;44895;47.438;18.978;2023-03-22T05:05:15;100053.84;;;7.00;100.00
59110;BME280;44895;47.438;18.978;2023-03-22T05:08:20;100054.91;;;7.30;100.00
59110;BME280;44895;47.438;18.978;2023-03-22T05:11:26;100052.19;;;7.45;100.00
59110;BME280;44895;47.438;18.978;2023-03-22T05:14:56;100062.69;;;7.52;100.00
59110;BME280;44895;47.438;18.978;2023-03-22T05:18:04;100058.41;;;7.30;100.00
59110;BME280;44895;47.438;18.978;2023-03-22T05:21:15;100058.38;;;7.41;100.00
59110;BME280;44895;47.438;18.978;2023-03-22T05:24:20;100059.72;;;7.64;100.00
59110;BME280;44895;47.438;18.978;2023-03-22T05:27:25;100056.94;;;7.84;100.00
59110;BME280;44895;47.438;18.978;2023-03-22T05:30:39;100065.59;;;7.92;100.00
59110;BME280;44895;47.438;18.978;2023-03-22T05:34:06;100056.38;;;7.88;100.00
59110;BME280;44895;47.438;18.978;2023-03-22T05:37:12;100064.81;;;8.41;100.00
59110;BME280;44895;47.438;18.978;2023-03-22T05:40:26;100074.94;;;8.70;100.00
59110;BME280;44895;47.438;18.978;2023-03-22T05:43:30;100065.25;;;8.98;100.00
59110;BME280;44895;47.438;18.978;2023-03-22T05:46:35;100068.91;;;9.13;100.00
59110;BME280;44895;47.438;18.978;2023-03-22T05:49:57;100060.59;;;9.04;100.00
59110;BME280;44895;47.438;18.978;2023-03-22T05:53:02;100057.13;;;9.57;100.00
59110;BME280;44895;47.438;18.978;2023-03-22T05:56:18;100063.97;;;9.98;100.00
59110;BME280;44895;47.438;18.978;2023-03-22T05:59:25;100071.66;;;10.15;100.00
59110;BME280;44895;47.438;18.978;2023-03-22T06:02:29;100073.97;;;10.46;100.00
59110;BME280;44895;47.438;18.978;2023-03-22T06:05:33;100073.03;;;10.56;100.00
59110;BME280;44895;47.438;18.978;2023-03-22T06:08:39;100086.69;;;10.89;100.00
59110;BME280;44895;47.438;18.978;2023-03-22T06:11:42;100091.75;;;10.76;100.00
59110;BME280;44895;47.438;18.978;2023-03-22T06:14:46;100091.41;;;10.83;100.00
59110;BME280;44895;47.438;18.978;2023-03-22T06:18:10;100089.88;;;11.10;100.00
59110;BME280;44895;47.438;18.978;2023-03-22T06:21:18;100086.59;;;11.27;100.00
59110;BME280;44895;47.438;18.978;2023-03-22T06:24:22;100086.72;;;11.36;100.00
59110;BME280;44895;47.438;18.978;2023-03-22T06:27:25;100089.13;;;11.37;100.00
59110;BME280;44895;47.438;18.978;2023-03-22T06:30:29;100098.00;;;11.29;100.00
59110;BME280;44895;47.438;18.978;2023-03-22T06:33:51;100093.72;;;11.56;100.00
59110;BME280;44895;47.438;18.978;2023-03-22T06:37:03;100091.66;;;12.22;100.00
59110;BME280;44895;47.438;18.978;2023-03-22T06:40:13;100090.81;;;12.36;100.00
59110;BME280;44895;47.438;18.978;2023-03-22T06:43:17;100092.03;;;12.30;100.00
59110;BME280;44895;47.438;18.978;2023-03-22T06:46:24;100098.00;;;12.32;100.00
59110;BME280;44895;47.438;18.978;2023-03-22T06:49:37;100094.44;;;12.59;100.00
59110;BME280;44895;47.438;18.978;2023-03-22T06:52:41;100095.22;;;12.60;100.00
59110;BME280;44895;47.438;18.978;2023-03-22T06:55:44;100086.50;;;12.71;100.00
59110;BME280;44895;47.438;18.978;2023-03-22T06:58:53;100091.66;;;12.73;100.00
59110;BME280;44895;47.438;18.978;2023-03-22T07:01:57;100100.34;;;12.61;100.00
59110;BME280;44895;47.438;18.978;2023-03-22T07:05:00;100097.19;;;12.31;100.00
59110;BME280;44895;47.438;18.978;2023-03-22T07:08:04;100099.56;;;12.61;100.00
59110;BME280;44895;47.438;18.978;2023-03-22T07:11:08;100101.94;;;12.76;100.00
59110;BME280;44895;47.438;18.978;2023-03-22T07:14:12;100120.06;;;12.58;100.00
59110;BME280;44895;47.438;18.978;2023-03-22T07:17:49;100107.59;;;13.02;100.00
59110;BME280;44895;47.438;18.978;2023-03-22T07:20:54;100105.63;;;13.40;100.00
59110;BME280;44895;47.438;18.978;2023-03-22T07:23:58;100120.56;;;13.42;100.00
59110;BME280;44895;47.438;18.978;2023-03-22T07:27:04;100107.94;;;13.10;100.00
59110;BME280;44895;47.438;18.978;2023-03-22T07:30:08;100107.84;;;12.92;100.00
59110;BME280;44895;47.438;18.978;2023-03-22T07:33:15;100117.75;;;13.33;100.00
59110;BME280;44895;47.438;18.978;2023-03-22T07:36:20;100117.63;;;13.38;100.00
59110;BME280;44895;47.438;18.978;2023-03-22T07:39:28;100112.66;;;13.63;100.00
59110;BME280;44895;47.438;18.978;2023-03-22T07:42:32;100103.91;;;13.52;100.00
59110;BME280;44895;47.438;18.978;2023-03-22T07:45:57;100102.00;;;13.53;100.00
59110;BME280;44895;47.438;18.978;2023-03-22T07:49:19;100111.78;;;13.85;100.00
59110;BME280;44895;47.438;18.978;2023-03-22T07:52:55;100114.78;;;13.75;100.00
59110;BME280;44895;47.438;18.978;2023-03-22T07:55:58;100104.34;;;13.68;100.00
59110;BME280;44895;47.438;18.978;2023-03-22T07:59:02;100101.66;;;13.77;100.00
59110;BME280;44895;47.438;18.978;2023-03-22T08:02:06;100114.03;;;13.52;100.00
59110;BME280;44895;47.438;18.978;2023-03-22T08:05:17;100120.19;;;13.66;100.00
59110;BME280;44895;47.438;18.978;2023-03-22T08:08:26;100106.13;;;13.73;100.00
59110;BME280;44895;47.438;18.978;2023-03-22T08:11:29;100096.41;;;13.58;100.00
59110;BME280;44895;47.438;18.978;2023-03-22T08:14:35;100107.28;;;13.81;100.00
59110;BME280;44895;47.438;18.978;2023-03-22T08:17:41;100103.03;;;13.66;100.00
59110;BME280;44895;47.438;18.978;2023-03-22T08:20:55;100106.25;;;13.68;100.00
59110;BME280;44895;47.438;18.978;2023-03-22T08:23:59;100112.66;;;13.63;100.00
59110;BME280;44895;47.438;18.978;2023-03-22T08:27:22;100107.09;;;13.77;100.00
59110;BME280;44895;47.438;18.978;2023-03-22T08:30:27;100114.63;;;14.12;100.00
59110;BME280;44895;47.438;18.978;2023-03-22T08:33:32;100116.56;;;14.11;100.00
59110;BME280;44895;47.438;18.978;2023-03-22T08:36:35;100112.03;;;14.07;98.91
59110;BME280;44895;47.438;18.978;2023-03-22T08:39:42;100118.16;;;14.21;100.00
59110;BME280;44895;47.438;18.978;2023-03-22T08:42:56;100114.41;;;14.57;98.89
59110;BME280;44895;47.438;18.978;2023-03-22T08:46:01;100124.22;;;14.58;97.34
59110;BME280;44895;47.438;18.978;2023-03-22T08:49:04;100121.88;;;14.16;94.18
59110;BME280;44895;47.438;18.978;2023-03-22T08:52:11;100130.84;;;14.17;97.70
59110;BME280;44895;47.438;18.978;2023-03-22T08:55:35;100131.47;;;14.05;100.00
59110;BME280;44895;47.438;18.978;2023-03-22T08:58:45;100124.44;;;14.22;99.75
59110;BME280;44895;47.438;18.978;2023-03-22T09:02:14;100115.31;;;14.35;97.49
59110;BME280;44895;47.438;18.978;2023-03-22T09:05:18;100104.09;;;14.45;97.16
59110;BME280;44895;47.438;18.978;2023-03-22T09:08:22;100110.00;;;14.39;100.00
59110;BME280;44895;47.438;18.978;2023-03-22T09:11:33;100106.34;;;14.52;96.64
59110;BME280;44895;47.438;18.978;2023-03-22T09:14:39;100110.84;;;14.48;100.00
59110;BME280;44895;47.438;18.978;2023-03-22T09:17:42;100113.88;;;14.46;98.20
59110;BME280;44895;47.438;18.978;2023-03-22T09:20:46;100109.72;;;14.49;97.43
59110;BME280;44895;47.438;18.978;2023-03-22T09:23:51;100123.06;;;14.50;95.75
59110;BME280;44895;47.438;18.978;2023-03-22T09:26:59;100114.44;;;14.75;96.62
59110;BME280;44895;47.438;18.978;2023-03-22T09:30:03;100107.81;;;14.58;100.00
59110;BME280;44895;47.438;18.978;2023-03-22T09:33:08;100101.34;;;14.28;97.13
59110;BME280;44895;47.438;18.978;2023-03-22T09:36:14;100103.91;;;14.33;99.98
59110;BME280;44895;47.438;18.978;2023-03-22T09:39:18;100105.38;;;14.48;96.46
59110;BME280;44895;47.438;18.978;2023-03-22T09:42:37;100110.88;;;14.65;95.46
59110;BME280;44895;47.438;18.978;2023-03-22T09:45:45;100105.22;;;14.53;95.19
59110;BME280;44895;47.438;18.978;2023-03-22T09:48:50;100105.84;;;14.41;94.54
59110;BME280;44895;47.438;18.978;2023-03-22T09:51:54;100099.44;;;14.55;97.87
59110;BME280;44895;47.438;18.978;2023-03-22T09:54:57;100103.13;;;14.50;95.43
59110;BME280;44895;47.438;18.978;2023-03-22T09:58:05;100106.53;;;14.56;97.90
59110;BME280;44895;47.438;18.978;2023-03-22T10:10:35;100101.22;;;14.59;97.92
59110;BME280;44895;47.438;18.978;2023-03-22T10:13:40;100098.03;;;14.75;97.85
59110;BME280;44895;47.438;18.978;2023-03-22T10:16:47;100098.28;;;14.38;100.00
59110;BME280;44895;47.438;18.978;2023-03-22T10:22:56;100096.34;;;14.39;100.00
59110;BME280;44895;47.438;18.978;2023-03-22T10:26:02;100091.72;;;14.48;100.00
59110;BME280;44895;47.438;18.978;2023-03-22T10:29:10;100092.97;;;14.24;100.00
59110;BME280;44895;47.438;18.978;2023-03-22T10:32:33;100091.66;;;14.13;100.00
59110;BME280;44895;47.438;18.978;2023-03-22T10:35:41;100088.63;;;14.23;100.00
59110;BME280;44895;47.438;18.978;2023-03-22T10:38:47;100083.81;;;14.29;100.00
59110;BME280;44895;47.438;18.978;2023-03-22T10:41:52;100092.31;;;14.27;100.00
59110;BME280;44895;47.438;18.978;2023-03-22T10:45:07;100090.56;;;14.31;100.00
59110;BME280;44895;47.438;18.978;2023-03-22T10:48:31;100089.44;;;14.41;100.00
59110;BME280;44895;47.438;18.978;2023-03-22T10:51:39;100085.25;;;14.17;100.00
59110;BME280;44895;47.438;18.978;2023-03-22T10:54:43;100093.44;;;14.26;100.00
59110;BME280;44895;47.438;18.978;2023-03-22T10:57:50;100086.38;;;14.25;100.00
59110;BME280;44895;47.438;18.978;2023-03-22T11:01:10;100090.84;;;14.03;100.00
59110;BME280;44895;47.438;18.978;2023-03-22T11:04:15;100080.75;;;14.22;100.00
59110;BME280;44895;47.438;18.978;2023-03-22T11:07:29;100082.53;;;14.44;100.00
59110;BME280;44895;47.438;18.978;2023-03-22T11:10:33;100075.63;;;14.46;100.00
59110;BME280;44895;47.438;18.978;2023-03-22T11:13:37;100066.78;;;14.32;100.00
59110;BME280;44895;47.438;18.978;2023-03-22T11:19:54;100057.16;;;14.52;100.00
59110;BME280;44895;47.438;18.978;2023-03-22T11:23:00;100053.47;;;14.74;100.00
59110;BME280;44895;47.438;18.978;2023-03-22T11:26:07;100056.72;;;14.67;100.00
59110;BME280;44895;47.438;18.978;2023-03-22T11:29:14;100045.44;;;14.78;99.63
59110;BME280;44895;47.438;18.978;2023-03-22T11:35:29;100045.75;;;14.94;100.00
59110;BME280;44895;47.438;18.978;2023-03-22T11:38:37;100035.59;;;15.12;100.00
59110;BME280;44895;47.438;18.978;2023-03-22T11:41:41;100038.06;;;14.78;100.00
59110;BME280;44895;47.438;18.978;2023-03-22T11:44:47;100028.72;;;14.88;99.88
59110;BME280;44895;47.438;18.978;2023-03-22T11:47:52;100030.16;;;14.77;100.00
59110;BME280;44895;47.438;18.978;2023-03-22T11:51:06;100028.72;;;14.79;99.63
59110;BME280;44895;47.438;18.978;2023-03-22T11:57:27;100022.69;;;15.21;94.77
59110;BME280;44895;47.438;18.978;2023-03-22T12:00:34;100028.03;;;15.56;94.77
59110;BME280;44895;47.438;18.978;2023-03-22T12:03:42;100026.81;;;15.36;91.64
59110;BME280;44895;47.438;18.978;2023-03-22T12:06:48;100019.50;;;15.58;92.16
59110;BME280;44895;47.438;18.978;2023-03-22T12:10:14;100027.56;;;15.54;93.07
59110;BME280;44895;47.438;18.978;2023-03-22T12:13:23;100029.13;;;15.64;88.84
59110;BME280;44895;47.438;18.978;2023-03-22T12:16:35;100021.50;;;15.87;91.75
59110;BME280;44895;47.438;18.978;2023-03-22T12:19:46;100023.06;;;16.18;90.84
59110;BME280;44895;47.438;18.978;2023-03-22T12:22:53;100017.97;;;16.08;85.18
59110;BME280;44895;47.438;18.978;2023-03-22T12:29:04;100013.53;;;16.24;83.96
59110;BME280;44895;47.438;18.978;2023-03-22T12:32:11;100013.91;;;16.35;85.95
59110;BME280;44895;47.438;18.978;2023-03-22T12:35:20;100016.72;;;16.26;81.38
59110;BME280;44895;47.438;18.978;2023-03-22T12:38:34;100012.59;;;16.20;77.99
59110;BME280;44895;47.438;18.978;2023-03-22T12:41:40;100012.97;;;16.31;77.67
59110;BME280;44895;47.438;18.978;2023-03-22T12:44:45;100011.09;;;16.44;76.09
59110;BME280;44895;47.438;18.978;2023-03-22T12:47:52;100013.03;;;16.22;74.91
59110;BME280;44895;47.438;18.978;2023-03-22T12:51:05;100004.81;;;16.65;74.31
59110;BME280;44895;47.438;18.978;2023-03-22T12:54:09;100008.44;;;16.56;73.75
59110;BME280;44895;47.438;18.978;2023-03-22T12:57:14;100003.63;;;16.32;72.18
59110;BME280;44895;47.438;18.978;2023-03-22T13:00:19;99993.06;;;16.43;69.88
59110;BME280;44895;47.438;18.978;2023-03-22T13:03:28;99987.81;;;16.71;67.66
59110;BME280;44895;47.438;18.978;2023-03-22T13:09:48;99981.69;;;16.87;66.63
59110;BME280;44895;47.438;18.978;2023-03-22T13:16:16;99970.56;;;16.71;61.80
59110;BME280;44895;47.438;18.978;2023-03-22T13:19:29;99967.03;;;17.16;61.94
59110;BME280;44895;47.438;18.978;2023-03-22T13:25:38;99956.66;;;17.22;64.66
59110;BME280;44895;47.438;18.978;2023-03-22T13:29:00;99958.81;;;17.04;63.49
59110;BME280;44895;47.438;18.978;2023-03-22T13:32:28;99958.13;;;17.19;62.59
59110;BME280;44895;47.438;18.978;2023-03-22T13:38:57;99953.19;;;17.00;62.77
59110;BME280;44895;47.438;18.978;2023-03-22T13:42:05;99959.41;;;16.88;60.50
59110;BME280;44895;47.438;18.978;2023-03-22T13:45:26;99958.06;;;16.94;61.73
59110;BME280;44895;47.438;18.978;2023-03-22T13:52:05;99951.97;;;16.76;64.58
59110;BME280;44895;47.438;18.978;2023-03-22T13:55:14;99949.50;;;16.62;62.03
59110;BME280;44895;47.438;18.978;2023-03-22T14:01:41;99942.28;;;16.58;60.54
59110;BME280;44895;47.438;18.978;2023-03-22T14:07:54;99936.19;;;16.40;60.81
59110;BME280;44895;47.438;18.978;2023-03-22T14:11:02;99933.91;;;16.42;60.15
59110;BME280;44895;47.438;18.978;2023-03-22T14:14:14;99928.50;;;16.67;61.25
59110;BME280;44895;47.438;18.978;2023-03-22T14:17:34;99931.97;;;16.76;62.67
59110;BME280;44895;47.438;18.978;2023-03-22T14:20:41;99928.59;;;16.58;62.06
59110;BME280;44895;47.438;18.978;2023-03-22T14:23:50;99927.94;;;16.61;62.54
59110;BME280;44895;47.438;18.978;2023-03-22T14:26:54;99919.53;;;16.45;62.34
59110;BME280;44895;47.438;18.978;2023-03-22T14:29:58;99918.88;;;16.60;62.35
59110;BME280;44895;47.438;18.978;2023-03-22T14:33:06;99921.97;;;16.59;62.68
59110;BME280;44895;47.438;18.978;2023-03-22T14:36:12;99916.34;;;16.55;62.36
59110;BME280;44895;47.438;18.978;2023-03-22T14:39:19;99920.03;;;16.59;63.66
59110;BME280;44895;47.438;18.978;2023-03-22T14:42:25;99913.78;;;16.38;63.44
59110;BME280;44895;47.438;18.978;2023-03-22T14:45:31;99915.25;;;16.35;63.50
59110;BME280;44895;47.438;18.978;2023-03-22T14:48:35;99911.16;;;16.29;65.26
59110;BME280;44895;47.438;18.978;2023-03-22T14:51:41;99905.31;;;16.30;65.54
59110;BME280;44895;47.438;18.978;2023-03-22T14:54:46;99908.84;;;16.31;66.81
59110;BME280;44895;47.438;18.978;2023-03-22T14:57:54;99908.19;;;16.34;67.20
59110;BME280;44895;47.438;18.978;2023-03-22T15:01:02;99898.03;;;16.35;68.81
59110;BME280;44895;47.438;18.978;2023-03-22T15:04:10;99900.28;;;16.33;69.25
59110;BME280;44895;47.438;18.978;2023-03-22T15:07:16;99904.38;;;16.26;69.64
59110;BME280;44895;47.438;18.978;2023-03-22T15:10:21;99895.31;;;16.13;68.39
59110;BME280;44895;47.438;18.978;2023-03-22T15:13:25;99890.97;;;16.12;70.14
59110;BME280;44895;47.438;18.978;2023-03-22T15:16:30;99894.38;;;16.09;71.98
59110;BME280;44895;47.438;18.978;2023-03-22T15:19:49;99885.38;;;16.09;70.94
59110;BME280;44895;47.438;18.978;2023-03-22T15:22:54;99882.22;;;16.19;70.59
59110;BME280;44895;47.438;18.978;2023-03-22T15:25:58;99880.13;;;16.16;70.27
59110;BME280;44895;47.438;18.978;2023-03-22T15:29:04;99877.16;;;16.09;69.55
59110;BME280;44895;47.438;18.978;2023-03-22T15:32:19;99879.75;;;16.05;70.14
59110;BME280;44895;47.438;18.978;2023-03-22T15:35:24;99877.25;;;16.12;69.31
59110;BME280;44895;47.438;18.978;2023-03-22T15:38:29;99870.41;;;16.06;69.79
59110;BME280;44895;47.438;18.978;2023-03-22T15:41:39;99874.88;;;16.11;68.74
59110;BME280;44895;47.438;18.978;2023-03-22T15:44:53;99870.63;;;16.01;68.71
59110;BME280;44895;47.438;18.978;2023-03-22T15:48:04;99864.72;;;15.90;69.84
59110;BME280;44895;47.438;18.978;2023-03-22T15:51:10;99865.13;;;15.80;68.95
59110;BME280;44895;47.438;18.978;2023-03-22T15:54:18;99865.06;;;15.89;69.65
59110;BME280;44895;47.438;18.978;2023-03-22T15:57:25;99860.59;;;15.84;70.12
59110;BME280;44895;47.438;18.978;2023-03-22T16:00:38;99862.53;;;15.84;69.36
59110;BME280;44895;47.438;18.978;2023-03-22T16:03:44;99865.19;;;15.71;70.52
59110;BME280;44895;47.438;18.978;2023-03-22T16:06:49;99873.66;;;15.57;68.87
59110;BME280;44895;47.438;18.978;2023-03-22T16:09:53;99865.44;;;15.57;68.48
59110;BME280;44895;47.438;18.978;2023-03-22T16:12:57;99874.19;;;15.51;69.28
59110;BME280;44895;47.438;18.978;2023-03-22T16:16:01;99870.41;;;15.34;69.34
59110;BME280;44895;47.438;18.978;2023-03-22T16:19:04;99867.53;;;15.30;70.76
59110;BME280;44895;47.438;18.978;2023-03-22T16:22:09;99868.72;;;15.21;70.62
59110;BME280;44895;47.438;18.978;2023-03-22T16:25:15;99867.44;;;15.18;71.50
59110;BME280;44895;47.438;18.978;2023-03-22T16:28:19;99863.56;;;15.19;72.78
59110;BME280;44895;47.438;18.978;2023-03-22T16:31:23;99864.94;;;15.04;73.26
59110;BME280;44895;47.438;18.978;2023-03-22T16:34:27;99875.41;;;14.93;76.00
59110;BME280;44895;47.438;18.978;2023-03-22T16:37:31;99877.94;;;14.68;82.60
59110;BME280;44895;47.438;18.978;2023-03-22T16:40:36;99887.25;;;14.50;87.53
59110;BME280;44895;47.438;18.978;2023-03-22T16:43:40;99878.78;;;14.43;90.65
59110;BME280;44895;47.438;18.978;2023-03-22T16:46:44;99886.50;;;14.23;95.06
59110;BME280;44895;47.438;18.978;2023-03-22T16:49:47;99885.06;;;14.08;97.75
59110;BME280;44895;47.438;18.978;2023-03-22T16:52:51;99888.13;;;13.98;100.00
59110;BME280;44895;47.438;18.978;2023-03-22T16:55:54;99886.97;;;13.73;100.00
59110;BME280;44895;47.438;18.978;2023-03-22T16:58:58;99880.06;;;13.66;100.00
59110;BME280;44895;47.438;18.978;2023-03-22T17:02:02;99882.59;;;13.54;100.00
59110;BME280;44895;47.438;18.978;2023-03-22T17:05:06;99886.28;;;13.41;100.00
59110;BME280;44895;47.438;18.978;2023-03-22T17:08:17;99882.00;;;13.17;100.00
59110;BME280;44895;47.438;18.978;2023-03-22T17:11:23;99875.00;;;12.93;100.00
59110;BME280;44895;47.438;18.978;2023-03-22T17:14:26;99883.09;;;12.67;100.00
59110;BME280;44895;47.438;18.978;2023-03-22T17:17:30;99879.31;;;12.85;100.00
59110;BME280;44895;47.438;18.978;2023-03-22T17:20:34;99881.28;;;12.62;100.00
59110;BME280;44895;47.438;18.978;2023-03-22T17:23:38;99889.50;;;12.39;100.00
59110;BME280;44895;47.438;18.978;2023-03-22T17:26:42;99893.56;;;12.51;100.00
59110;BME280;44895;47.438;18.978;2023-03-22T17:29:46;99885.78;;;12.35;100.00
59110;BME280;44895;47.438;18.978;2023-03-22T17:32:49;99899.22;;;12.32;100.00
59110;BME280;44895;47.438;18.978;2023-03-22T17:35:53;99890.41;;;12.12;100.00